Michel A — TCQX8 — position and weather

sailwx.info

Track history (hours):
 
Tides and Currents Weather Stations Pressure Air Temp Water Temp Dewpoint Dewpoint Depression Visibility Wind Speed Wind Dir Waves Ship Positions

Michel A

Last reported at 2017-Dec-11 17:00 UTC. Time now 2017-Dec-11 19:15 UTC.
Position N 35°39' E 014°19'.

Length 184 m; draft 7.3 m.

Type: Ship. MMSI: 271001050.

Date/timePositionNaut miles runAvg speedWind from/ knotsBaromVisibWave heightAir tempDewpointWater temp
2017-Dec-11 17:00N 35°39' E 014°19'611.6
2017-Dec-11 16:30N 35°41' E 014°12'611.8
2017-Dec-11 16:00N 35°43' E 014°05'611.7
2017-Dec-11 15:30N 35°46' E 013°59'  
2017-Dec-03 09:55N 36°34' E 014°01'511.8
2017-Dec-03 09:29N 36°33' E 014°07'510.7
2017-Dec-03 09:00N 36°31' E 014°13'611.1
2017-Dec-03 08:30N 36°30' E 014°20'611.2
2017-Dec-03 08:00N 36°28' E 014°26'611.6
2017-Dec-03 07:30N 36°26' E 014°33'610.8
2017-Dec-03 06:59N 36°26' E 014°40'510.7
2017-Dec-03 06:29N 36°25' E 014°47'40111.7
2017-Dec-01 20:12N 35°44' E 022°59'314.5
2017-Dec-01 20:00N 35°43' E 023°03'714.6
2017-Dec-01 19:30N 35°43' E 023°12'713.7
2017-Dec-01 19:00N 35°43' E 023°20'612.4
2017-Dec-01 18:31N 35°44' E 023°28'713.5
2017-Dec-01 18:00N 35°50' E 023°31'713.7
2017-Dec-01 17:30N 35°56' E 023°34'713.6
2017-Dec-01 17:01N 36°02' E 023°37'  
Track history (hours):
 
Tides and Currents Weather Stations Pressure Air Temp Water Temp Dewpoint Dewpoint Depression Visibility Wind Speed Wind Dir Waves Ship Positions

Michel A

Last reported at 2017-Dec-11 17:00 UTC. Time now 2017-Dec-11 19:15 UTC.
Position N 35°39' E 014°19'.

Length 184 m; draft 7.3 m.

Type: Ship. MMSI: 271001050.

Date/timePositionNaut miles runAvg speedWind from/ knotsBaromVisibWave heightAir tempDewpointWater temp
2017-Dec-11 17:00N 35°39' E 014°19'611.6
2017-Dec-11 16:30N 35°41' E 014°12'611.8
2017-Dec-11 16:00N 35°43' E 014°05'611.7
2017-Dec-11 15:30N 35°46' E 013°59'  
2017-Dec-03 09:55N 36°34' E 014°01'511.8
2017-Dec-03 09:29N 36°33' E 014°07'510.7
2017-Dec-03 09:00N 36°31' E 014°13'611.1
2017-Dec-03 08:30N 36°30' E 014°20'611.2
2017-Dec-03 08:00N 36°28' E 014°26'611.6
2017-Dec-03 07:30N 36°26' E 014°33'610.8
2017-Dec-03 06:59N 36°26' E 014°40'510.7
2017-Dec-03 06:29N 36°25' E 014°47'40111.7
2017-Dec-01 20:12N 35°44' E 022°59'314.5
2017-Dec-01 20:00N 35°43' E 023°03'714.6
2017-Dec-01 19:30N 35°43' E 023°12'713.7
2017-Dec-01 19:00N 35°43' E 023°20'612.4
2017-Dec-01 18:31N 35°44' E 023°28'713.5
2017-Dec-01 18:00N 35°50' E 023°31'713.7
2017-Dec-01 17:30N 35°56' E 023°34'713.6
2017-Dec-01 17:01N 36°02' E 023°37'  

Dump ship's entire track history